Time;durP1;ratioP1;P1;durP2;ratioP2;P2;SDS_P1;SDS_P2;PMS_P1;PMS_P2;Temp;Humidity;BMP_temperature;BMP_pressure;BME280_temperature;BME280_humidity;BME280_pressure;Samples;Min_cycle;Max_cycle;Signal;HPM_P1;HPM_P2
2022/04/15 00:02:27;;;;;;;;;;;10.00;99.90;;;;;;5068207;28;19921;-75
2022/04/15 00:04:53;;;;;;;;;;;10.00;99.90;;;;;;5069708;28;19935;-75
2022/04/15 00:07:18;;;;;;;;;;;10.00;99.90;;;;;;5068001;28;19924;-75
2022/04/15 00:09:44;;;;;;;;;;;10.00;99.90;;;;;;5051278;28;19920;-75
2022/04/15 00:12:17;;;;;;;;;;;10.00;99.90;;;;;;5069192;28;20007;-75
2022/04/15 00:14:43;;;;;;;;;;;10.00;99.90;;;;;;5082818;28;19927;-75
2022/04/15 00:17:08;;;;;;;;;;;10.00;99.90;;;;;;5076664;28;19923;-75
2022/04/15 00:19:34;;;;;;;;;;;10.00;99.90;;;;;;5070709;28;19924;-75
2022/04/15 00:21:59;;;;;;;;;;;10.00;99.90;;;;;;5071401;28;19920;-75
2022/04/15 00:24:40;;;;;;;;;;;10.00;99.90;;;;;;5088390;28;19971;-75
2022/04/15 00:27:06;;;;;;;;;;;9.90;99.90;;;;;;5088227;28;20211;-75
2022/04/15 00:29:31;;;;;;;;;;;9.90;99.90;;;;;;5092169;28;19927;-75
2022/04/15 00:31:57;;;;;;;;;;;9.90;99.90;;;;;;5091666;28;20378;-75
2022/04/15 00:34:22;;;;;;;;;;;9.90;99.90;;;;;;5075521;28;19942;-75
2022/04/15 00:36:48;;;;;;;;;;;9.90;99.90;;;;;;5071810;28;19920;-75
2022/04/15 00:39:13;;;;;;;;;;;9.90;99.90;;;;;;5071644;28;19927;-75
2022/04/15 00:41:43;;;;;;;;;;;9.90;99.90;;;;;;5071369;28;19921;-75
2022/04/15 00:44:08;;;;;;;;;;;9.90;99.90;;;;;;5071732;28;19927;-75
2022/04/15 00:46:34;;;;;;;;;;;9.90;99.90;;;;;;5071578;28;19920;-75
2022/04/15 00:48:59;;;;;;;;;;;9.90;99.90;;;;;;5071495;28;19920;-75
2022/04/15 00:51:25;;;;;;;;;;;9.90;99.90;;;;;;5086529;28;20495;-75
2022/04/15 00:53:53;;;;;;;;;;;9.90;99.90;;;;;;5091333;28;19969;-75
2022/04/15 00:56:19;;;;;;;;;;;9.90;99.90;;;;;;5091600;28;20363;-75
2022/04/15 00:58:45;;;;;;;;;;;9.90;99.90;;;;;;5091366;28;20011;-75
2022/04/15 01:01:11;;;;;;;;;;;9.90;99.90;;;;;;5073835;28;20461;-75
2022/04/15 01:03:37;;;;;;;;;;;9.80;99.90;;;;;;5091609;28;19935;-75
2022/04/15 01:06:04;;;;;;;;;;;9.80;99.90;;;;;;5090969;28;19971;-75
2022/04/15 01:08:30;;;;;;;;;;;9.80;99.90;;;;;;5091493;28;20358;-75
2022/04/15 01:10:56;;;;;;;;;;;9.80;99.90;;;;;;5091512;28;19973;-75
2022/04/15 01:13:23;;;;;;;;;;;9.80;99.90;;;;;;5091241;28;19920;-75
2022/04/15 01:15:50;;;;;;;;;;;9.80;99.90;;;;;;5090812;28;19920;-75
2022/04/15 01:18:15;;;;;;;;;;;9.70;99.90;;;;;;5091074;28;19924;-75
2022/04/15 01:20:42;;;;;;;;;;;9.80;99.90;;;;;;5091107;28;20019;-75
2022/04/15 01:23:08;;;;;;;;;;;9.80;99.90;;;;;;5090684;28;19947;-75
2022/04/15 01:25:33;;;;;;;;;;;9.70;99.90;;;;;;5075148;28;19927;-75
2022/04/15 01:27:59;;;;;;;;;;;9.70;99.90;;;;;;5035868;28;20014;-75
2022/04/15 01:30:25;;;;;;;;;;;9.80;99.90;;;;;;5070143;28;19924;-75
2022/04/15 01:32:51;;;;;;;;;;;9.80;99.90;;;;;;5070269;28;20420;-75
2022/04/15 01:35:17;;;;;;;;;;;9.80;99.90;;;;;;5070764;28;20414;-75
2022/04/15 01:37:43;;;;;;;;;;;9.70;99.90;;;;;;5070980;28;19928;-75
2022/04/15 01:40:09;;;;;;;;;;;9.70;99.90;;;;;;5069794;28;19920;-75
2022/04/15 01:42:36;;;;;;;;;;;9.70;99.90;;;;;;5069049;28;19928;-75
2022/04/15 01:45:02;;;;;;;;;;;9.70;99.90;;;;;;5070627;28;20011;-75
2022/04/15 01:47:27;;;;;;;;;;;9.80;99.90;;;;;;5070849;28;20427;-75
2022/04/15 01:49:53;;;;;;;;;;;9.70;99.90;;;;;;5070391;28;19921;-75
2022/04/15 01:52:19;;;;;;;;;;;9.70;99.90;;;;;;5069911;28;19925;-75
2022/04/15 01:54:45;;;;;;;;;;;9.70;99.90;;;;;;5070419;28;19924;-75
2022/04/15 01:57:11;;;;;;;;;;;9.70;99.90;;;;;;5069953;28;20007;-75
2022/04/15 01:59:37;;;;;;;;;;;9.70;99.90;;;;;;5052702;28;19979;-75
2022/04/15 02:02:03;;;;;;;;;;;9.70;99.90;;;;;;5069625;28;20491;-75
2022/04/15 02:04:29;;;;;;;;;;;9.60;99.90;;;;;;5070476;28;19920;-75
2022/04/15 02:06:55;;;;;;;;;;;9.60;99.90;;;;;;5068950;28;20298;-75
2022/04/15 02:09:20;;;;;;;;;;;9.50;99.90;;;;;;5069736;28;20357;-75
2022/04/15 02:11:46;;;;;;;;;;;9.40;99.90;;;;;;5068874;28;19926;-75
2022/04/15 02:14:16;;;;;;;;;;;9.30;99.90;;;;;;5069658;28;19967;-75
2022/04/15 02:16:42;;;;;;;;;;;9.30;99.90;;;;;;5069898;28;19968;-75
2022/04/15 02:19:08;;;;;;;;;;;9.30;99.90;;;;;;5069870;28;19983;-75
2022/04/15 02:21:33;;;;;;;;;;;9.30;99.90;;;;;;5070071;28;19920;-75
2022/04/15 02:23:59;;;;;;;;;;;9.20;99.90;;;;;;5071642;28;20432;-75
2022/04/15 02:26:25;;;;;;;;;;;9.20;99.90;;;;;;5089974;28;19920;-75
2022/04/15 02:28:50;;;;;;;;;;;9.20;99.90;;;;;;5088503;28;19920;-75
2022/04/15 02:31:16;;;;;;;;;;;9.20;99.90;;;;;;5089977;28;20398;-75
2022/04/15 02:33:41;;;;;;;;;;;9.20;99.90;;;;;;5088315;28;19927;-75
2022/04/15 02:36:07;;;;;;;;;;;9.10;99.90;;;;;;5089740;28;19941;-75
2022/04/15 02:38:33;;;;;;;;;;;9.20;99.90;;;;;;5088463;28;19919;-75
2022/04/15 02:40:58;;;;;;;;;;;9.20;99.90;;;;;;5089477;28;19997;-75
2022/04/15 02:43:31;;;;;;;;;;;9.20;99.90;;;;;;5088309;28;19931;-75
2022/04/15 02:46:01;;;;;;;;;;;9.20;99.90;;;;;;5071849;28;19931;-75
2022/04/15 02:48:26;;;;;;;;;;;9.20;99.90;;;;;;5071655;28;20352;-75
2022/04/15 02:50:53;;;;;;;;;;;9.10;99.90;;;;;;5087720;28;19927;-75
2022/04/15 02:53:18;;;;;;;;;;;9.10;99.90;;;;;;5089267;28;19924;-75
2022/04/15 02:55:44;;;;;;;;;;;9.10;99.90;;;;;;5104686;28;19924;-75
2022/04/15 02:58:09;;;;;;;;;;;9.10;99.90;;;;;;5089592;28;19927;-75
2022/04/15 03:00:35;;;;;;;;;;;9.10;99.90;;;;;;5089358;28;20398;-75
2022/04/15 03:03:00;;;;;;;;;;;9.00;99.90;;;;;;5087721;28;19963;-75
2022/04/15 03:05:26;;;;;;;;;;;9.00;99.90;;;;;;5089576;28;20372;-75
2022/04/15 03:07:51;;;;;;;;;;;8.90;99.90;;;;;;5089275;28;19927;-75
2022/04/15 03:10:17;;;;;;;;;;;8.90;99.90;;;;;;5089054;28;19927;-75
2022/04/15 03:12:42;;;;;;;;;;;8.90;99.90;;;;;;5088975;28;19920;-75
2022/04/15 03:15:11;;;;;;;;;;;8.90;99.90;;;;;;5104390;28;20308;-75
2022/04/15 03:17:37;;;;;;;;;;;8.90;99.90;;;;;;5089225;28;19986;-75
2022/04/15 03:20:03;;;;;;;;;;;8.90;99.90;;;;;;5089338;28;19956;-75
2022/04/15 03:22:29;;;;;;;;;;;8.90;99.90;;;;;;5070760;28;19956;-75
2022/04/15 03:24:55;;;;;;;;;;;8.90;99.90;;;;;;5078990;28;19931;-75
2022/04/15 03:27:20;;;;;;;;;;;8.90;99.90;;;;;;5068572;28;19928;-75
2022/04/15 03:29:46;;;;;;;;;;;8.90;99.90;;;;;;5067764;28;19924;-75
2022/04/15 03:32:11;;;;;;;;;;;8.80;99.90;;;;;;5050598;28;20006;-75
2022/04/15 03:34:37;;;;;;;;;;;8.80;99.90;;;;;;5050796;28;19926;-75
2022/04/15 03:37:03;;;;;;;;;;;8.80;99.90;;;;;;5050327;28;19921;-75
2022/04/15 03:39:29;;;;;;;;;;;8.80;99.90;;;;;;5067642;28;19924;-75
2022/04/15 03:41:54;;;;;;;;;;;8.70;99.90;;;;;;5068570;28;19921;-75
2022/04/15 03:44:20;;;;;;;;;;;8.80;99.90;;;;;;5067677;28;19924;-75
2022/04/15 03:46:45;;;;;;;;;;;8.80;99.90;;;;;;5068850;28;19928;-75
2022/04/15 03:49:11;;;;;;;;;;;8.70;99.90;;;;;;5069143;28;20032;-75
2022/04/15 03:51:36;;;;;;;;;;;8.70;99.90;;;;;;5067924;28;20410;-75
2022/04/15 03:54:02;;;;;;;;;;;8.70;99.90;;;;;;5068811;28;20026;-75
2022/04/15 03:56:28;;;;;;;;;;;8.70;99.90;;;;;;5068762;28;19924;-75
2022/04/15 03:58:53;;;;;;;;;;;8.60;99.90;;;;;;5050410;28;20023;-75
2022/04/15 04:01:19;;;;;;;;;;;8.60;99.90;;;;;;5050606;28;19965;-75
2022/04/15 04:03:45;;;;;;;;;;;8.60;99.90;;;;;;5052773;28;19927;-75
2022/04/15 04:06:10;;;;;;;;;;;8.50;99.90;;;;;;5072426;28;19928;-75
2022/04/15 04:08:36;;;;;;;;;;;8.50;99.90;;;;;;5072399;28;19920;-75
2022/04/15 04:11:01;;;;;;;;;;;8.50;99.90;;;;;;5072250;28;20039;-75
2022/04/15 04:13:27;;;;;;;;;;;8.40;99.90;;;;;;5072019;28;20020;-75
2022/04/15 04:15:52;;;;;;;;;;;8.40;99.90;;;;;;5071755;28;19924;-75
2022/04/15 04:18:20;;;;;;;;;;;8.40;99.90;;;;;;5072058;28;20600;-75
2022/04/15 04:20:46;;;;;;;;;;;8.50;99.90;;;;;;5054313;28;20304;-75
2022/04/15 04:23:12;;;;;;;;;;;8.50;99.90;;;;;;5072138;28;19925;-75
2022/04/15 04:25:37;;;;;;;;;;;8.50;99.90;;;;;;5069172;28;19923;-75
2022/04/15 04:28:03;;;;;;;;;;;8.40;99.90;;;;;;5092284;28;20441;-75
2022/04/15 04:30:29;;;;;;;;;;;8.40;99.90;;;;;;5073917;28;19927;-75
2022/04/15 04:32:54;;;;;;;;;;;8.40;99.90;;;;;;5107499;28;19920;-75
2022/04/15 04:35:20;;;;;;;;;;;8.40;99.90;;;;;;5091951;28;20031;-75
2022/04/15 04:37:46;;;;;;;;;;;8.40;99.90;;;;;;5091952;28;19953;-75
2022/04/15 04:40:12;;;;;;;;;;;8.40;99.90;;;;;;5090798;28;19985;-75
2022/04/15 04:42:38;;;;;;;;;;;8.40;99.90;;;;;;5091991;28;19920;-75
2022/04/15 04:45:03;;;;;;;;;;;8.40;99.90;;;;;;5073837;28;20007;-75
2022/04/15 04:47:29;;;;;;;;;;;8.40;99.90;;;;;;5073311;28;19937;-75
2022/04/15 04:49:55;;;;;;;;;;;8.40;99.90;;;;;;5107447;28;19923;-75
2022/04/15 04:52:22;;;;;;;;;;;8.50;99.90;;;;;;5073446;28;19931;-75
2022/04/15 04:54:48;;;;;;;;;;;8.50;99.90;;;;;;5091703;28;19942;-75
2022/04/15 04:57:14;;;;;;;;;;;8.50;99.90;;;;;;5091650;28;20010;-75
2022/04/15 04:59:39;;;;;;;;;;;8.50;99.90;;;;;;5091729;28;19920;-75
2022/04/15 05:02:05;;;;;;;;;;;8.60;99.90;;;;;;5089615;28;19931;-75
2022/04/15 05:04:31;;;;;;;;;;;8.60;99.90;;;;;;5090810;28;19920;-75
2022/04/15 05:06:56;;;;;;;;;;;8.60;99.90;;;;;;5090332;28;19933;-75
2022/04/15 05:09:22;;;;;;;;;;;8.60;99.90;;;;;;5056161;28;19924;-75
2022/04/15 05:11:48;;;;;;;;;;;8.60;99.90;;;;;;5089859;28;20010;-75
2022/04/15 05:14:14;;;;;;;;;;;8.70;99.90;;;;;;5072390;28;19981;-75
2022/04/15 05:16:40;;;;;;;;;;;8.70;99.90;;;;;;5089639;28;19997;-75
2022/04/15 05:19:05;;;;;;;;;;;8.70;99.90;;;;;;5089775;28;20461;-75
2022/04/15 05:21:31;;;;;;;;;;;8.70;99.90;;;;;;5090066;28;19924;-75
2022/04/15 05:23:56;;;;;;;;;;;8.70;99.90;;;;;;5088153;28;19928;-75
2022/04/15 05:26:22;;;;;;;;;;;8.70;99.90;;;;;;5052356;28;19925;-75
2022/04/15 05:28:47;;;;;;;;;;;8.70;99.90;;;;;;5053024;28;20333;-75
2022/04/15 05:31:13;;;;;;;;;;;8.70;99.90;;;;;;5052935;28;20359;-76
2022/04/15 05:33:38;;;;;;;;;;;8.70;99.90;;;;;;5052937;28;19931;-76
2022/04/15 05:36:04;;;;;;;;;;;8.60;99.90;;;;;;5051926;28;19927;-76
2022/04/15 05:38:29;;;;;;;;;;;8.70;99.90;;;;;;5069495;28;19924;-76
2022/04/15 05:40:55;;;;;;;;;;;8.60;99.90;;;;;;5052630;28;19920;-76
2022/04/15 05:43:21;;;;;;;;;;;8.60;99.90;;;;;;5069427;28;19924;-75
2022/04/15 05:45:46;;;;;;;;;;;8.60;99.90;;;;;;5052471;28;19921;-75
2022/04/15 05:48:12;;;;;;;;;;;8.60;99.90;;;;;;5051826;28;20288;-75
2022/04/15 05:50:37;;;;;;;;;;;8.60;99.90;;;;;;5069324;28;19927;-75
2022/04/15 05:53:03;;;;;;;;;;;8.60;99.90;;;;;;5052475;28;19921;-75
2022/04/15 05:55:28;;;;;;;;;;;8.60;99.90;;;;;;5036017;28;19921;-75
2022/04/15 05:57:54;;;;;;;;;;;8.60;99.90;;;;;;5051922;28;19935;-75
2022/04/15 06:00:19;;;;;;;;;;;8.60;99.90;;;;;;5052414;28;19935;-75
2022/04/15 06:02:45;;;;;;;;;;;8.70;99.90;;;;;;5068337;28;20001;-75
2022/04/15 06:05:10;;;;;;;;;;;8.60;99.90;;;;;;5052249;28;21194;-75
2022/04/15 06:07:36;;;;;;;;;;;8.70;99.90;;;;;;5052110;28;19920;-75
2022/04/15 06:10:02;;;;;;;;;;;8.70;99.90;;;;;;5051750;28;19956;-75
2022/04/15 06:12:54;;;;;;;;;;;8.70;99.90;;;;;;5068667;28;19967;-75
2022/04/15 06:15:23;;;;;;;;;;;8.70;99.90;;;;;;5035434;28;19965;-75
2022/04/15 06:17:50;;;;;;;;;;;8.70;99.90;;;;;;5035029;28;19927;-75
2022/04/15 06:20:16;;;;;;;;;;;8.70;99.90;;;;;;5035442;28;19928;-75
2022/04/15 06:22:42;;;;;;;;;;;8.70;99.90;;;;;;5068467;28;19920;-75
2022/04/15 06:25:08;;;;;;;;;;;8.70;99.90;;;;;;5081156;28;20046;-75
2022/04/15 06:27:34;;;;;;;;;;;8.70;99.90;;;;;;5071817;28;19995;-75
2022/04/15 06:29:59;;;;;;;;;;;8.70;99.90;;;;;;5086322;28;19919;-76
2022/04/15 06:32:25;;;;;;;;;;;8.70;99.90;;;;;;5084728;28;19924;-75
2022/04/15 06:34:50;;;;;;;;;;;8.70;99.90;;;;;;5070229;28;19920;-76
2022/04/15 06:37:16;;;;;;;;;;;8.80;99.90;;;;;;5084500;28;20413;-77
2022/04/15 06:39:42;;;;;;;;;;;8.70;99.90;;;;;;5084119;28;20010;-76
2022/04/15 06:42:08;;;;;;;;;;;8.70;99.90;;;;;;5070679;28;20081;-75
2022/04/15 06:44:37;;;;;;;;;;;8.70;99.90;;;;;;5072048;28;20461;-75
2022/04/15 06:47:02;;;;;;;;;;;8.60;99.90;;;;;;5071887;28;19924;-74
2022/04/15 06:49:28;;;;;;;;;;;8.70;99.90;;;;;;5089307;28;19920;-75
2022/04/15 06:51:53;;;;;;;;;;;8.70;99.90;;;;;;5068973;28;20301;-75
2022/04/15 06:54:19;;;;;;;;;;;8.70;99.90;;;;;;5087298;28;19931;-76
2022/04/15 06:56:45;;;;;;;;;;;8.70;99.90;;;;;;5075210;28;19924;-74
2022/04/15 06:59:10;;;;;;;;;;;8.70;99.90;;;;;;5053086;28;20280;-76
2022/04/15 07:01:36;;;;;;;;;;;8.80;99.90;;;;;;5089235;28;19956;-76
2022/04/15 07:04:02;;;;;;;;;;;8.70;99.90;;;;;;5090174;28;20003;-76
2022/04/15 07:06:28;;;;;;;;;;;8.80;99.90;;;;;;5053173;28;19920;-76
2022/04/15 07:08:54;;;;;;;;;;;8.80;99.90;;;;;;5069618;28;19923;-76
2022/04/15 07:11:20;;;;;;;;;;;8.90;99.90;;;;;;5088429;28;19943;-76
2022/04/15 07:13:45;;;;;;;;;;;9.00;99.90;;;;;;5053872;28;19920;-76
2022/04/15 07:16:11;;;;;;;;;;;9.00;99.90;;;;;;5070265;28;19931;-76
2022/04/15 07:18:37;;;;;;;;;;;9.00;99.90;;;;;;5058236;28;19927;-76
2022/04/15 07:21:02;;;;;;;;;;;9.00;99.90;;;;;;5051360;28;19973;-75
2022/04/15 07:23:28;;;;;;;;;;;9.10;99.90;;;;;;5053448;28;19986;-75
2022/04/15 07:25:53;;;;;;;;;;;9.00;99.90;;;;;;5054014;28;19920;-76
2022/04/15 07:28:19;;;;;;;;;;;9.00;99.90;;;;;;5063643;28;19975;-74
2022/04/15 07:30:44;;;;;;;;;;;9.00;99.90;;;;;;5071442;28;19920;-75
2022/04/15 07:33:10;;;;;;;;;;;9.10;99.90;;;;;;5071521;28;19920;-75
2022/04/15 07:35:35;;;;;;;;;;;9.10;99.90;;;;;;5088371;28;19970;-75
2022/04/15 07:38:01;;;;;;;;;;;9.20;99.90;;;;;;5054252;28;20404;-76
2022/04/15 07:40:28;;;;;;;;;;;9.30;99.90;;;;;;5070931;28;19923;-75
2022/04/15 07:42:54;;;;;;;;;;;9.40;99.90;;;;;;5088392;28;19924;-75
2022/04/15 07:45:20;;;;;;;;;;;9.50;99.90;;;;;;5071321;28;20444;-75
2022/04/15 07:47:47;;;;;;;;;;;9.40;99.90;;;;;;5089583;28;19924;-76
2022/04/15 07:50:13;;;;;;;;;;;9.50;99.90;;;;;;5089623;28;20625;-76
2022/04/15 07:52:39;;;;;;;;;;;9.60;99.90;;;;;;5089563;28;19927;-76
2022/04/15 07:55:04;;;;;;;;;;;9.70;99.90;;;;;;5071296;28;19920;-75
2022/04/15 07:57:30;;;;;;;;;;;9.80;99.90;;;;;;5089019;28;19934;-76
2022/04/15 07:59:56;;;;;;;;;;;9.90;99.90;;;;;;5071135;28;19968;-76
2022/04/15 08:02:22;;;;;;;;;;;9.90;99.90;;;;;;5070138;28;19924;-76
2022/04/15 08:04:47;;;;;;;;;;;10.00;99.90;;;;;;5086640;28;20358;-76
2022/04/15 08:07:13;;;;;;;;;;;10.10;99.90;;;;;;5069594;28;20030;-75
2022/04/15 08:09:39;;;;;;;;;;;10.10;99.90;;;;;;5087512;28;19924;-75
2022/04/15 08:12:05;;;;;;;;;;;10.20;99.90;;;;;;5087905;28;19926;-75
2022/04/15 08:14:31;;;;;;;;;;;10.20;99.90;;;;;;5069406;28;20442;-76
2022/04/15 08:16:56;;;;;;;;;;;10.30;99.90;;;;;;5081179;28;19924;-75
2022/04/15 08:19:22;;;;;;;;;;;10.30;99.90;;;;;;5072560;28;19924;-75
2022/04/15 08:21:47;;;;;;;;;;;10.20;99.90;;;;;;5067886;28;19927;-76
2022/04/15 08:24:13;;;;;;;;;;;10.20;99.90;;;;;;5071885;28;19924;-76
2022/04/15 08:26:39;;;;;;;;;;;10.20;99.90;;;;;;5088468;28;20085;-76
2022/04/15 08:29:05;;;;;;;;;;;10.20;99.90;;;;;;5086616;28;19989;-76
2022/04/15 08:31:30;;;;;;;;;;;10.30;99.90;;;;;;5089361;28;19971;-76
2022/04/15 08:33:56;;;;;;;;;;;10.40;99.90;;;;;;5088416;28;19924;-76
2022/04/15 08:36:21;;;;;;;;;;;10.50;99.90;;;;;;5088530;28;20366;-76
2022/04/15 08:38:47;;;;;;;;;;;10.60;99.90;;;;;;5070055;28;19984;-76
2022/04/15 08:41:13;;;;;;;;;;;10.70;99.90;;;;;;5070786;28;19924;-76
2022/04/15 08:43:39;;;;;;;;;;;10.70;99.90;;;;;;5071179;28;20453;-75
2022/04/15 08:46:05;;;;;;;;;;;10.80;99.90;;;;;;5087406;28;20058;-76
2022/04/15 08:48:31;;;;;;;;;;;10.80;99.90;;;;;;5071026;28;19981;-76
2022/04/15 08:50:58;;;;;;;;;;;10.90;99.90;;;;;;5091761;28;19978;-76
2022/04/15 08:53:23;;;;;;;;;;;10.80;99.90;;;;;;5073618;28;19926;-76
2022/04/15 08:55:49;;;;;;;;;;;10.80;99.90;;;;;;5092553;28;19920;-76
2022/04/15 08:58:14;;;;;;;;;;;10.80;99.90;;;;;;5091520;28;19931;-76
2022/04/15 09:00:40;;;;;;;;;;;10.90;99.90;;;;;;5074526;28;20276;-76
2022/04/15 09:03:06;;;;;;;;;;;11.00;99.90;;;;;;5074207;28;19920;-76
2022/04/15 09:05:32;;;;;;;;;;;11.00;99.90;;;;;;5091919;28;19935;-76
2022/04/15 09:08:05;;;;;;;;;;;11.00;99.90;;;;;;5056549;28;20357;-76
2022/04/15 09:10:33;;;;;;;;;;;11.10;99.90;;;;;;5092414;28;20062;-76
2022/04/15 09:12:59;;;;;;;;;;;11.00;99.90;;;;;;5083496;28;20397;-76
2022/04/15 09:15:24;;;;;;;;;;;11.00;99.90;;;;;;5091081;28;19920;-75
2022/04/15 09:17:51;;;;;;;;;;;10.90;99.90;;;;;;5092507;28;19927;-75
2022/04/15 09:20:17;;;;;;;;;;;10.80;99.90;;;;;;5091698;28;20391;-75
2022/04/15 09:22:42;;;;;;;;;;;10.80;99.90;;;;;;5091368;28;19920;-76
2022/04/15 09:25:09;;;;;;;;;;;10.80;99.90;;;;;;5092000;28;19920;-76
2022/04/15 09:27:35;;;;;;;;;;;10.80;99.90;;;;;;5092032;28;19959;-76
2022/04/15 09:30:02;;;;;;;;;;;10.80;99.90;;;;;;5089639;28;19926;-75
2022/04/15 09:32:28;;;;;;;;;;;10.80;99.90;;;;;;5091212;28;19940;-76
2022/04/15 09:34:55;;;;;;;;;;;10.80;99.90;;;;;;5091455;28;19924;-76
2022/04/15 09:37:21;;;;;;;;;;;10.80;99.90;;;;;;5091994;28;19923;-76
2022/04/15 09:40:02;;;;;;;;;;;10.70;99.90;;;;;;5090918;28;20006;-76
2022/04/15 09:42:29;;;;;;;;;;;10.80;99.90;;;;;;5073873;28;20760;-76
2022/04/15 09:44:59;;;;;;;;;;;10.70;99.90;;;;;;5091837;28;19930;-76
2022/04/15 09:47:24;;;;;;;;;;;10.70;99.90;;;;;;5072259;28;19924;-76
2022/04/15 09:49:50;;;;;;;;;;;10.70;99.90;;;;;;5072452;28;19969;-76
2022/04/15 09:52:24;;;;;;;;;;;10.70;99.90;;;;;;5073463;28;20294;-76
2022/04/15 09:54:50;;;;;;;;;;;10.60;99.90;;;;;;5090694;28;19920;-76
2022/04/15 09:57:16;;;;;;;;;;;10.60;99.90;;;;;;5091140;28;20328;-76
2022/04/15 09:59:44;;;;;;;;;;;10.60;99.90;;;;;;5091594;28;20433;-76
2022/04/15 10:02:11;;;;;;;;;;;10.50;99.90;;;;;;5089842;28;20283;-76
2022/04/15 10:04:37;;;;;;;;;;;10.40;99.90;;;;;;5088944;28;20436;-77
2022/04/15 10:07:08;;;;;;;;;;;10.40;99.90;;;;;;5089887;28;19975;-74
2022/04/15 10:09:39;;;;;;;;;;;10.30;99.90;;;;;;5090455;28;19979;-74
2022/04/15 10:12:05;;;;;;;;;;;10.30;99.90;;;;;;5089714;28;19969;-75
2022/04/15 10:14:33;;;;;;;;;;;10.30;99.90;;;;;;5090089;28;19920;-74
2022/04/15 10:16:59;;;;;;;;;;;10.40;99.90;;;;;;5058714;28;20426;-75
2022/04/15 10:19:25;;;;;;;;;;;10.40;99.90;;;;;;5090427;28;19920;-74
2022/04/15 10:21:51;;;;;;;;;;;10.50;99.90;;;;;;5072970;28;20015;-75
2022/04/15 10:24:17;;;;;;;;;;;10.50;99.90;;;;;;5089363;28;19981;-74
2022/04/15 10:26:43;;;;;;;;;;;10.50;99.90;;;;;;5090184;28;20007;-74
2022/04/15 10:29:12;;;;;;;;;;;10.50;99.90;;;;;;5090613;28;19967;-75
2022/04/15 10:31:42;;;;;;;;;;;10.50;99.90;;;;;;5090842;28;19985;-76
2022/04/15 10:34:18;;;;;;;;;;;10.50;99.90;;;;;;5071012;28;20636;-75
2022/04/15 10:36:44;;;;;;;;;;;10.50;99.90;;;;;;5089523;28;20438;-76
2022/04/15 10:39:11;;;;;;;;;;;10.50;99.90;;;;;;5072683;28;19920;-75
2022/04/15 10:41:42;;;;;;;;;;;10.50;99.90;;;;;;5088457;28;19927;-76
2022/04/15 10:44:23;;;;;;;;;;;10.50;99.90;;;;;;5068525;28;19934;-77
2022/04/15 10:46:48;;;;;;;;;;;10.50;99.90;;;;;;5089241;28;20412;-75
2022/04/15 10:49:26;;;;;;;;;;;10.50;99.90;;;;;;5067043;28;19928;-76
2022/04/15 10:51:56;;;;;;;;;;;10.50;99.90;;;;;;5070780;28;19924;-76
2022/04/15 10:54:38;;;;;;;;;;;10.50;99.90;;;;;;5086239;28;19924;-75
2022/04/15 10:57:05;;;;;;;;;;;10.60;99.90;;;;;;5088513;28;19955;-74
2022/04/15 11:02:18;;;;;;;;;;;10.60;99.90;;;;;;5076632;28;19920;-74
2022/04/15 11:04:47;;;;;;;;;;;10.60;99.90;;;;;;5090294;28;19965;-74
2022/04/15 11:07:24;;;;;;;;;;;10.60;99.90;;;;;;5087875;28;20389;-74
2022/04/15 11:13:28;;;;;;;;;;;10.60;99.90;;;;;;5089317;28;19962;-75
2022/04/15 11:16:22;;;;;;;;;;;10.60;99.90;;;;;;5071636;28;19920;-75
2022/04/15 11:18:51;;;;;;;;;;;10.60;99.90;;;;;;5085662;28;19981;-74
2022/04/15 11:21:24;;;;;;;;;;;10.70;99.90;;;;;;5070820;28;20352;-75
2022/04/15 11:23:55;;;;;;;;;;;10.70;99.90;;;;;;5071141;28;20342;-75
2022/04/15 11:26:21;;;;;;;;;;;10.70;99.90;;;;;;5086676;28;19927;-74
2022/04/15 11:28:48;;;;;;;;;;;10.60;99.90;;;;;;5080001;28;19920;-75
2022/04/15 11:31:19;;;;;;;;;;;10.60;99.90;;;;;;5088276;28;19927;-74
2022/04/15 11:33:45;;;;;;;;;;;10.60;99.90;;;;;;5071182;28;19998;-74
2022/04/15 11:36:11;;;;;;;;;;;10.60;99.90;;;;;;5088700;28;20391;-74
2022/04/15 11:38:36;;;;;;;;;;;10.70;99.90;;;;;;5088772;28;20350;-74
2022/04/15 11:41:02;;;;;;;;;;;10.70;99.90;;;;;;5071177;28;20430;-74
2022/04/15 11:43:27;;;;;;;;;;;10.70;99.90;;;;;;5089493;28;19942;-74
2022/04/15 11:45:53;;;;;;;;;;;10.60;99.90;;;;;;5088004;28;19924;-74
2022/04/15 11:48:20;;;;;;;;;;;10.70;99.90;;;;;;5071144;28;20018;-74
2022/04/15 11:50:50;;;;;;;;;;;10.70;99.90;;;;;;5089854;28;19924;-75
2022/04/15 11:53:15;;;;;;;;;;;10.70;99.90;;;;;;5089032;28;19934;-76
2022/04/15 11:55:49;;;;;;;;;;;10.60;99.90;;;;;;5071607;28;19920;-75
2022/04/15 11:58:14;;;;;;;;;;;10.60;99.90;;;;;;5088967;28;20002;-75
2022/04/15 12:00:40;;;;;;;;;;;10.60;99.90;;;;;;5088081;28;20015;-75
2022/04/15 12:03:06;;;;;;;;;;;10.50;99.90;;;;;;5071672;28;19927;-74
2022/04/15 12:05:32;;;;;;;;;;;10.50;99.90;;;;;;5088827;28;19924;-74
2022/04/15 12:07:58;;;;;;;;;;;10.50;99.90;;;;;;5071006;28;19931;-74
2022/04/15 12:10:24;;;;;;;;;;;10.50;99.90;;;;;;5089573;28;20282;-74
2022/04/15 12:12:49;;;;;;;;;;;10.60;99.90;;;;;;5089585;28;19926;-75
2022/04/15 12:15:15;;;;;;;;;;;10.60;99.90;;;;;;5086817;28;19950;-74
2022/04/15 12:17:41;;;;;;;;;;;10.70;99.90;;;;;;5071347;28;19927;-74
2022/04/15 12:20:07;;;;;;;;;;;10.70;99.90;;;;;;5087833;28;19954;-75
2022/04/15 12:22:34;;;;;;;;;;;10.60;99.90;;;;;;5088250;28;20011;-75
2022/04/15 12:25:12;;;;;;;;;;;10.60;99.90;;;;;;5073371;28;20413;-74
2022/04/15 12:27:38;;;;;;;;;;;10.70;99.90;;;;;;5092847;28;19923;-75
2022/04/15 12:30:03;;;;;;;;;;;10.70;99.90;;;;;;5093197;28;19920;-75
2022/04/15 12:32:34;;;;;;;;;;;10.70;99.90;;;;;;5074302;28;20282;-75
2022/04/15 12:34:59;;;;;;;;;;;10.70;99.90;;;;;;5072716;28;20385;-75
2022/04/15 12:37:33;;;;;;;;;;;10.70;99.90;;;;;;5054885;28;19927;-75
2022/04/15 12:40:00;;;;;;;;;;;10.70;99.90;;;;;;5054504;28;19924;-74
2022/04/15 12:42:25;;;;;;;;;;;10.70;99.90;;;;;;5086445;28;19927;-75
2022/04/15 12:44:51;;;;;;;;;;;10.70;99.90;;;;;;5074621;28;19920;-75
2022/04/15 12:47:17;;;;;;;;;;;10.70;99.90;;;;;;5074678;28;20332;-75
2022/04/15 12:49:42;;;;;;;;;;;10.70;99.90;;;;;;5056897;28;19920;-75
2022/04/15 12:52:08;;;;;;;;;;;10.70;99.90;;;;;;5092891;28;19928;-75
2022/04/15 12:54:33;;;;;;;;;;;10.70;99.90;;;;;;5092913;28;19920;-74
2022/04/15 12:56:59;;;;;;;;;;;10.70;99.90;;;;;;5091427;28;20006;-75
2022/04/15 12:59:27;;;;;;;;;;;10.70;99.90;;;;;;5074469;28;19920;-74
2022/04/15 13:01:53;;;;;;;;;;;10.70;99.90;;;;;;5074601;28;20393;-75
2022/04/15 13:04:19;;;;;;;;;;;10.70;99.90;;;;;;5091959;28;19959;-75
2022/04/15 13:06:44;;;;;;;;;;;10.70;99.90;;;;;;5074246;28;19924;-74
2022/04/15 13:09:10;;;;;;;;;;;10.70;99.90;;;;;;5090864;28;19965;-75
2022/04/15 13:11:36;;;;;;;;;;;10.70;99.90;;;;;;5073991;28;19923;-75
2022/04/15 13:14:02;;;;;;;;;;;10.80;99.90;;;;;;5092266;28;20313;-74
2022/04/15 13:16:27;;;;;;;;;;;10.70;99.90;;;;;;5092582;28;19920;-74
2022/04/15 13:18:54;;;;;;;;;;;10.70;99.90;;;;;;5073850;28;20456;-75
2022/04/15 13:21:23;;;;;;;;;;;10.70;99.90;;;;;;5075922;28;19923;-75
2022/04/15 13:23:48;;;;;;;;;;;10.70;99.90;;;;;;5089700;28;19927;-74
2022/04/15 13:26:14;;;;;;;;;;;10.80;99.90;;;;;;5091024;28;19924;-74
2022/04/15 13:28:41;;;;;;;;;;;10.70;99.90;;;;;;5090471;28;19994;-72
2022/04/15 13:31:08;;;;;;;;;;;10.70;99.90;;;;;;5088252;28;19970;-74
2022/04/15 13:33:34;;;;;;;;;;;10.80;99.90;;;;;;5091711;28;20180;-75
2022/04/15 13:36:01;;;;;;;;;;;10.80;99.90;;;;;;5091034;28;19926;-74
2022/04/15 13:38:26;;;;;;;;;;;10.80;99.90;;;;;;5072991;28;20285;-74
2022/04/15 13:40:52;;;;;;;;;;;10.70;99.90;;;;;;5090793;28;20015;-75
2022/04/15 13:43:18;;;;;;;;;;;10.70;99.90;;;;;;5090828;28;20398;-74
2022/04/15 13:45:43;;;;;;;;;;;10.60;99.90;;;;;;5066918;28;19920;-75
2022/04/15 13:48:09;;;;;;;;;;;10.70;99.90;;;;;;5091164;28;19959;-74
2022/04/15 13:50:34;;;;;;;;;;;10.70;99.90;;;;;;5073475;28;19931;-74
2022/04/15 13:58:50;;;;;;;;;;;10.60;99.90;;;;;;5048660;28;19928;-75
2022/04/15 14:01:24;;;;;;;;;;;10.60;99.90;;;;;;5015636;28;20072;-75
2022/04/15 14:03:54;;;;;;;;;;;10.60;99.90;;;;;;5052073;28;19935;-75
2022/04/15 14:06:19;;;;;;;;;;;10.60;99.90;;;;;;5091141;28;19924;-75
2022/04/15 14:08:45;;;;;;;;;;;10.60;99.90;;;;;;5091447;28;20287;-75
2022/04/15 14:11:12;;;;;;;;;;;10.50;99.90;;;;;;5089986;28;20005;-75
2022/04/15 14:13:44;;;;;;;;;;;10.50;99.90;;;;;;5072092;28;19943;-75
2022/04/15 14:16:10;;;;;;;;;;;10.40;99.90;;;;;;5072824;28;19969;-75
2022/04/15 14:18:35;;;;;;;;;;;10.40;99.90;;;;;;5090947;28;19990;-75
2022/04/15 14:21:01;;;;;;;;;;;10.40;99.90;;;;;;5090925;28;20404;-75
2022/04/15 14:23:27;;;;;;;;;;;10.40;99.90;;;;;;5088920;28;19927;-75
2022/04/15 14:25:53;;;;;;;;;;;10.40;99.90;;;;;;5087276;28;19924;-74
2022/04/15 14:28:18;;;;;;;;;;;10.40;99.90;;;;;;5072198;28;19946;-75
2022/04/15 14:30:44;;;;;;;;;;;10.40;99.90;;;;;;5082092;28;19956;-75
2022/04/15 14:33:10;;;;;;;;;;;10.40;99.90;;;;;;5082000;28;19935;-75